Time;durP1;ratioP1;P1;durP2;ratioP2;P2;SDS_P1;SDS_P2;PMS_P1;PMS_P2;Temp;Humidity;BMP_temperature;BMP_pressure;BME280_temperature;BME280_humidity;BME280_pressure;Samples;Min_cycle;Max_cycle;Signal;HPM_P1;HPM_P2
2022/05/31 00:00:06;;;;;;;372.85;249.23;;;;;;;22.70;64.03;99460.97;336447;29;1214;-82
2022/05/31 00:00:17;;;;;;;370.42;246.57;;;;;;;22.71;63.93;99456.47;337386;29;1497;-82
2022/05/31 00:00:27;;;;;;;368.27;248.90;;;;;;;22.68;63.74;99465.59;338099;29;1347;-82
2022/05/31 00:00:38;;;;;;;367.52;247.02;;;;;;;22.72;63.92;99468.81;341507;29;1398;-82
2022/05/31 00:00:48;;;;;;;367.07;247.30;;;;;;;22.70;63.65;99466.28;341988;28;1096;-82
2022/05/31 00:00:58;;;;;;;365.35;244.50;;;;;;;22.70;63.89;99460.97;340767;29;1527;-82
2022/05/31 00:01:09;;;;;;;363.67;247.17;;;;;;;22.69;63.69;99459.28;339475;29;1481;-82
2022/05/31 00:01:20;;;;;;;365.98;248.73;;;;;;;22.73;63.92;99466.00;338630;29;1071;-82
2022/05/31 00:01:30;;;;;;;364.73;249.57;;;;;;;22.72;63.95;99467.00;338643;29;1201;-82
2022/05/31 00:01:41;;;;;;;366.92;246.23;;;;;;;22.70;63.78;99468.13;337472;29;1605;-82
2022/05/31 00:01:52;;;;;;;368.73;249.03;;;;;;;22.69;63.75;99459.28;339084;29;867;-82
2022/05/31 00:02:03;;;;;;;370.20;247.52;;;;;;;22.71;63.84;99459.97;339444;29;1530;-82
2022/05/31 00:02:18;;;;;;;369.00;249.52;;;;;;;22.69;63.70;99464.59;340008;29;1683;-82
2022/05/31 00:02:29;;;;;;;365.67;249.13;;;;;;;22.69;63.66;99469.94;339286;29;1771;-82
2022/05/31 00:02:39;;;;;;;366.45;248.90;;;;;;;22.68;64.00;99465.59;340305;29;1553;-82
2022/05/31 00:02:50;;;;;;;365.97;247.73;;;;;;;22.68;64.00;99464.75;337965;29;1257;-82
2022/05/31 00:03:01;;;;;;;368.92;247.93;;;;;;;22.67;63.68;99463.91;340107;29;1624;-82
2022/05/31 00:03:11;;;;;;;367.55;247.77;;;;;;;22.65;63.86;99455.22;339398;29;1355;-82
2022/05/31 00:03:22;;;;;;;366.25;247.23;;;;;;;22.62;63.70;99468.00;337253;29;1443;-82
2022/05/31 00:03:33;;;;;;;367.87;249.37;;;;;;;22.59;63.63;99458.44;337377;29;854;-82
2022/05/31 00:03:43;;;;;;;369.35;250.45;;;;;;;22.58;63.90;99457.59;337832;29;1317;-82
2022/05/31 00:03:54;;;;;;;369.30;247.93;;;;;;;22.59;64.16;99458.44;339611;29;1370;-82
2022/05/31 00:04:04;;;;;;;365.30;245.40;;;;;;;22.60;63.71;99462.78;341153;28;1633;-82
2022/05/31 00:04:15;;;;;;;365.60;245.97;;;;;;;22.59;63.69;99458.44;341248;28;1541;-82
2022/05/31 00:04:26;;;;;;;364.75;246.32;;;;;;;22.58;64.21;99462.94;338040;29;1568;-82
2022/05/31 00:04:37;;;;;;;362.17;242.57;;;;;;;22.58;64.09;99457.59;338019;29;1509;-82
2022/05/31 00:04:47;;;;;;;362.55;244.13;;;;;;;22.58;64.24;99462.94;340654;29;1173;-82
2022/05/31 00:04:58;;;;;;;363.07;242.77;;;;;;;22.59;63.87;99458.44;339164;29;1580;-82
2022/05/31 00:05:10;;;;;;;364.60;242.66;;;;;;;22.60;64.28;99465.47;338320;29;1492;-82
2022/05/31 00:05:20;;;;;;;363.83;242.18;;;;;;;22.61;64.30;99464.47;336851;29;1488;-82
2022/05/31 00:05:31;;;;;;;368.47;247.80;;;;;;;22.62;64.10;99473.31;338479;29;1506;-82
2022/05/31 00:05:41;;;;;;;370.30;245.82;;;;;;;22.61;64.12;99469.81;339583;29;1489;-82
2022/05/31 00:05:52;;;;;;;371.27;246.23;;;;;;;22.62;64.11;99458.16;339860;29;1402;-82
2022/05/31 00:06:02;;;;;;;368.90;246.03;;;;;;;22.59;64.13;99453.09;336222;29;902;-82
2022/05/31 00:06:14;;;;;;;367.17;244.30;;;;;;;22.59;64.22;99463.78;336220;29;1383;-82
2022/05/31 00:06:24;;;;;;;368.65;245.48;;;;;;;22.61;64.31;99466.31;338550;29;1660;-82
2022/05/31 00:06:34;;;;;;;369.85;245.82;;;;;;;22.60;64.09;99465.47;337439;29;930;-82
2022/05/31 00:06:45;;;;;;;371.10;245.07;;;;;;;22.59;64.43;99466.44;338669;29;1596;-82
2022/05/31 00:06:55;;;;;;;368.57;241.40;;;;;;;22.56;64.64;99459.56;337423;29;1187;-82
2022/05/31 00:07:06;;;;;;;366.60;240.57;;;;;;;22.57;64.91;99460.41;336379;29;1331;-82
2022/05/31 00:07:17;;;;;;;366.45;245.75;;;;;;;22.57;64.63;99476.41;339331;29;1327;-82
2022/05/31 00:07:28;;;;;;;368.50;250.40;;;;;;;22.58;64.58;99467.44;339944;29;1293;-82
2022/05/31 00:07:39;;;;;;;368.27;249.00;;;;;;;22.56;64.73;99458.72;336577;29;1474;-82
2022/05/31 00:07:49;;;;;;;365.30;242.23;;;;;;;22.57;64.75;99463.06;339531;29;1298;-82
2022/05/31 00:08:00;;;;;;;367.80;241.67;;;;;;;22.54;64.73;99466.03;339683;29;1351;-82
2022/05/31 00:08:10;;;;;;;368.77;243.35;;;;;;;22.56;64.99;99467.56;337479;29;1526;-82
2022/05/31 00:08:21;;;;;;;371.13;247.03;;;;;;;22.57;64.89;99471.91;341804;29;834;-82
2022/05/31 00:08:32;;;;;;;368.27;247.03;;;;;;;22.55;65.14;99467.72;339576;29;1192;-82
2022/05/31 00:08:43;;;;;;;367.73;249.05;;;;;;;22.57;65.00;99476.41;337884;29;1526;-82
2022/05/31 00:08:53;;;;;;;368.52;250.32;;;;;;;22.54;64.89;99471.38;338279;29;862;-82
2022/05/31 00:09:04;;;;;;;369.60;249.50;;;;;;;22.53;64.90;99469.69;336209;29;1100;-82
2022/05/31 00:09:14;;;;;;;370.13;248.70;;;;;;;22.52;65.10;99468.03;337318;29;878;-82
2022/05/31 00:09:25;;;;;;;368.80;248.03;;;;;;;22.57;65.15;99468.41;339392;29;1599;-82
2022/05/31 00:09:35;;;;;;;365.90;242.88;;;;;;;22.52;64.64;99462.69;337570;29;768;-82
2022/05/31 00:09:46;;;;;;;365.55;239.63;;;;;;;22.55;64.98;99465.03;338831;29;1478;-82
2022/05/31 00:09:56;;;;;;;365.40;239.13;;;;;;;22.55;64.67;99459.72;340755;29;1572;-81
2022/05/31 00:10:08;;;;;;;368.60;243.23;;;;;;;22.59;65.13;99469.13;337840;29;1399;-82
2022/05/31 00:10:19;;;;;;;368.88;247.05;;;;;;;22.58;64.66;99470.09;340142;29;1378;-82
2022/05/31 00:10:29;;;;;;;366.25;245.80;;;;;;;22.57;64.91;99476.41;344034;28;1460;-82
2022/05/31 00:10:40;;;;;;;366.93;246.63;;;;;;;22.57;64.40;99471.06;343088;28;1185;-82
2022/05/31 00:10:50;;;;;;;367.67;243.57;;;;;;;22.56;64.39;99466.72;341580;29;1294;-82
2022/05/31 00:11:00;;;;;;;370.23;244.87;;;;;;;22.51;64.38;99464.53;341816;28;913;-82
2022/05/31 00:11:11;;;;;;;368.55;243.38;;;;;;;22.54;64.43;99476.69;337113;29;1185;-82
2022/05/31 00:11:22;;;;;;;369.00;245.50;;;;;;;22.55;64.71;99473.03;337208;29;1518;-82
2022/05/31 00:11:33;;;;;;;366.35;243.45;;;;;;;22.55;64.70;99468.56;337411;29;1311;-82
2022/05/31 00:11:44;;;;;;;365.83;243.82;;;;;;;22.56;64.63;99475.56;337304;29;1360;-82
2022/05/31 00:11:55;;;;;;;366.42;242.10;;;;;;;22.51;64.57;99466.34;338973;29;1477;-82
2022/05/31 00:12:06;;;;;;;365.83;239.27;;;;;;;22.54;64.69;99476.69;341142;29;1480;-82
2022/05/31 00:12:17;;;;;;;363.95;239.27;;;;;;;22.53;64.88;99472.34;337409;29;1345;-82
2022/05/31 00:12:27;;;;;;;358.63;236.37;;;;;;;22.50;64.80;99459.31;338908;29;1468;-82
2022/05/31 00:12:38;;;;;;;361.80;238.97;;;;;;;22.54;64.71;99471.38;338537;29;1469;-82
2022/05/31 00:12:48;;;;;;;363.57;240.07;;;;;;;22.54;64.78;99477.53;340527;29;1218;-82
2022/05/31 00:12:59;;;;;;;366.10;243.70;;;;;;;22.55;64.87;99473.03;341735;29;1385;-82
2022/05/31 00:13:09;;;;;;;365.67;242.60;;;;;;;22.54;65.24;99466.88;338029;29;1190;-82
2022/05/31 00:13:20;;;;;;;363.73;240.63;;;;;;;22.50;65.11;99467.31;340578;29;1210;-81
2022/05/31 00:13:30;;;;;;;365.67;238.37;;;;;;;22.49;65.13;99463.81;339764;29;1375;-82
2022/05/31 00:13:40;;;;;;;367.23;238.02;;;;;;;22.50;65.08;99470.00;338056;29;1549;-82
2022/05/31 00:13:51;;;;;;;371.10;241.50;;;;;;;22.52;65.34;99478.69;338605;29;1190;-81
2022/05/31 00:14:02;;;;;;;368.33;243.70;;;;;;;22.50;65.52;99462.00;337049;29;1305;-82
2022/05/31 00:14:13;;;;;;;365.92;244.02;;;;;;;22.51;65.33;99475.19;337548;29;1652;-82
2022/05/31 00:14:24;;;;;;;363.92;242.15;;;;;;;22.46;65.23;99463.25;339857;29;1469;-82
2022/05/31 00:14:34;;;;;;;365.75;242.93;;;;;;;22.48;65.33;99471.97;339970;29;1664;-82
2022/05/31 00:14:45;;;;;;;366.27;240.73;;;;;;;22.47;65.78;99473.78;337322;29;1466;-82
2022/05/31 00:14:55;;;;;;;365.83;237.98;;;;;;;22.48;65.53;99477.28;337831;29;1449;-82
2022/05/31 00:15:07;;;;;;;368.13;240.23;;;;;;;22.48;65.46;99474.63;340301;29;1186;-82
2022/05/31 00:15:18;;;;;;;363.80;241.23;;;;;;;22.49;65.65;99474.47;341828;29;1449;-82
2022/05/31 00:15:28;;;;;;;359.37;242.37;;;;;;;22.48;65.62;99474.63;337359;29;1235;-81
2022/05/31 00:15:38;;;;;;;357.58;239.48;;;;;;;22.48;65.30;99469.28;336795;29;1249;-82
2022/05/31 00:15:49;;;;;;;361.00;238.77;;;;;;;22.48;65.22;99477.28;339555;29;1207;-82
2022/05/31 00:15:59;;;;;;;363.13;236.43;;;;;;;22.46;65.03;99476.59;342610;28;1476;-82
2022/05/31 00:16:10;;;;;;;362.40;240.43;;;;;;;22.44;65.35;99476.72;340637;29;1282;-82
2022/05/31 00:16:20;;;;;;;362.17;240.98;;;;;;;22.45;65.23;99472.25;341533;28;1159;-82
2022/05/31 00:16:31;;;;;;;365.80;243.70;;;;;;;22.44;65.20;99467.88;338741;29;1544;-82
2022/05/31 00:16:41;;;;;;;363.83;237.82;;;;;;;22.46;65.47;99468.59;339165;29;1545;-82
2022/05/31 00:16:52;;;;;;;364.43;236.93;;;;;;;22.44;65.06;99467.88;340214;29;1395;-82
2022/05/31 00:17:03;;;;;;;362.30;233.65;;;;;;;22.47;65.20;99470.28;340329;29;1324;-82
2022/05/31 00:17:13;;;;;;;365.42;234.40;;;;;;;22.46;65.37;99471.25;338117;29;1581;-82
2022/05/31 00:17:23;;;;;;;367.83;241.30;;;;;;;22.48;65.21;99469.28;338800;29;1462;-82
2022/05/31 00:17:34;;;;;;;364.08;238.48;;;;;;;22.46;65.27;99468.59;338819;29;1353;-82
2022/05/31 00:17:44;;;;;;;360.00;239.33;;;;;;;22.46;65.07;99460.59;338031;29;1475;-82
2022/05/31 00:17:55;;;;;;;359.77;237.43;;;;;;;22.47;65.53;99470.28;338461;29;1349;-82
2022/05/31 00:18:06;;;;;;;364.03;243.40;;;;;;;22.46;65.10;99471.25;337582;29;775;-82
2022/05/31 00:18:16;;;;;;;366.10;245.98;;;;;;;22.48;65.00;99471.97;340542;29;1579;-82
2022/05/31 00:18:27;;;;;;;367.55;247.25;;;;;;;22.48;65.41;99472.81;338639;29;1490;-82
2022/05/31 00:18:37;;;;;;;366.93;244.50;;;;;;;22.49;65.31;99469.16;338675;29;1549;-82
2022/05/31 00:18:47;;;;;;;369.47;245.27;;;;;;;22.49;65.27;99468.31;338710;29;1199;-82
2022/05/31 00:18:58;;;;;;;365.27;243.57;;;;;;;22.47;65.14;99467.59;337519;29;1454;-82
2022/05/31 00:19:08;;;;;;;366.27;246.80;;;;;;;22.47;65.17;99470.28;337239;29;1033;-82
2022/05/31 00:19:19;;;;;;;366.60;245.52;;;;;;;22.42;65.42;99468.03;337335;29;1244;-82
2022/05/31 00:19:29;;;;;;;371.80;248.00;;;;;;;22.46;65.27;99473.94;338632;29;1389;-82
2022/05/31 00:19:39;;;;;;;372.08;247.52;;;;;;;22.43;65.19;99468.88;338748;29;1386;-82
2022/05/31 00:19:51;;;;;;;373.40;246.37;;;;;;;22.43;65.54;99466.19;338734;29;1915;-82
2022/05/31 00:20:04;;;;;;;369.58;245.32;;;;;;;22.44;65.33;99465.22;337289;29;1558;-82
2022/05/31 00:20:14;;;;;;;367.67;247.32;;;;;;;22.44;65.26;99470.56;340024;29;1442;-82
2022/05/31 00:20:25;;;;;;;365.23;243.52;;;;;;;22.38;65.13;99460.44;341515;29;1341;-82
2022/05/31 00:20:35;;;;;;;365.33;242.03;;;;;;;22.44;65.48;99478.56;342058;29;1580;-82
2022/05/31 00:20:46;;;;;;;365.92;241.63;;;;;;;22.45;65.19;99474.91;341727;29;1409;-82
2022/05/31 00:20:56;;;;;;;367.93;244.07;;;;;;;22.44;65.16;99475.88;337693;29;1442;-82
2022/05/31 00:21:07;;;;;;;366.80;241.60;;;;;;;22.42;65.47;99468.03;338947;29;1303;-82
2022/05/31 00:21:18;;;;;;;364.95;238.05;;;;;;;22.44;65.40;99471.41;338843;29;1418;-82
2022/05/31 00:21:40;;;;;;;366.23;238.80;;;;;;;22.45;65.04;99474.91;339251;29;1165;-82
2022/05/31 00:21:52;;;;;;;360.52;239.07;;;;;;;22.45;65.15;99472.25;338529;29;1483;-82
2022/05/31 00:22:09;;;;;;;360.20;239.57;;;;;;;22.45;65.29;99472.25;337490;29;1513;-82
2022/05/31 00:22:21;;;;;;;366.30;240.35;;;;;;;22.45;65.54;99475.75;338920;29;1487;-82
2022/05/31 00:22:32;;;;;;;366.25;240.57;;;;;;;22.43;65.48;99469.72;339433;29;1478;-82
2022/05/31 00:22:43;;;;;;;366.38;243.35;;;;;;;22.43;65.22;99471.53;337367;29;1386;-82
2022/05/31 00:22:53;;;;;;;361.80;237.73;;;;;;;22.43;65.17;99472.38;338943;29;1382;-82
2022/05/31 00:23:04;;;;;;;362.77;238.43;;;;;;;22.45;65.38;99482.91;339063;29;1567;-82
2022/05/31 00:23:14;;;;;;;362.13;239.52;;;;;;;22.46;65.54;99473.94;336846;29;1224;-82
2022/05/31 00:23:25;;;;;;;362.80;242.43;;;;;;;22.43;65.52;99482.22;339120;29;1533;-82
2022/05/31 00:23:35;;;;;;;363.45;239.27;;;;;;;22.42;65.11;99467.19;341440;29;1315;-82
2022/05/31 00:23:46;;;;;;;366.57;238.90;;;;;;;22.42;65.58;99468.03;341242;29;1413;-82
2022/05/31 00:23:56;;;;;;;366.77;238.55;;;;;;;22.42;65.59;99476.03;338389;29;1430;-82
2022/05/31 00:24:08;;;;;;;366.67;239.10;;;;;;;22.44;65.75;99476.72;340529;29;1324;-82
2022/05/31 00:24:20;;;;;;;366.73;239.70;;;;;;;22.45;65.66;99478.41;338627;29;1466;-82
2022/05/31 00:24:31;;;;;;;369.15;243.05;;;;;;;22.44;65.45;99471.41;338300;29;1474;-82
2022/05/31 00:24:41;;;;;;;367.95;243.18;;;;;;;22.44;65.29;99475.88;338404;29;1521;-82
2022/05/31 00:24:52;;;;;;;370.53;243.97;;;;;;;22.44;65.48;99478.56;338580;29;1191;-82
2022/05/31 00:25:03;;;;;;;371.45;240.30;;;;;;;22.37;65.83;99472.94;339643;29;1770;-82
2022/05/31 00:25:13;;;;;;;372.05;237.80;;;;;;;22.37;65.55;99474.78;340516;29;1465;-82
2022/05/31 00:25:24;;;;;;;371.08;233.73;;;;;;;22.38;65.62;99485.28;337054;29;1200;-82
2022/05/31 00:25:35;;;;;;;370.85;235.23;;;;;;;22.35;65.60;99471.41;337777;29;955;-82
2022/05/31 00:25:46;;;;;;;368.98;235.63;;;;;;;22.32;65.70;99482.34;340352;29;1454;-82
2022/05/31 00:25:57;;;;;;;365.25;234.65;;;;;;;22.33;65.83;99481.38;340367;29;1482;-82
2022/05/31 00:26:07;;;;;;;365.97;232.13;;;;;;;22.30;65.89;99473.66;342654;28;1185;-82
2022/05/31 00:26:18;;;;;;;368.05;232.13;;;;;;;22.34;65.85;99489.22;340295;29;1525;-82
2022/05/31 00:26:28;;;;;;;367.90;234.73;;;;;;;22.30;65.84;99474.47;337536;29;1295;-82
2022/05/31 00:26:39;;;;;;;364.77;239.48;;;;;;;22.33;66.00;99481.38;338838;29;1273;-82
2022/05/31 00:26:49;;;;;;;362.53;240.50;;;;;;;22.29;65.92;99479.97;337916;29;1380;-82
2022/05/31 00:27:01;;;;;;;360.17;236.10;;;;;;;22.33;65.97;99478.69;335182;29;1573;-81
2022/05/31 00:27:15;;;;;;;360.60;231.60;;;;;;;22.34;66.17;99480.38;339872;29;1553;-82
2022/05/31 00:27:26;;;;;;;365.15;235.13;;;;;;;22.34;66.00;99480.38;339847;29;1549;-82
2022/05/31 00:27:37;;;;;;;366.55;234.18;;;;;;;22.27;66.04;99474.75;338673;29;1400;-82
2022/05/31 00:27:48;;;;;;;366.75;235.13;;;;;;;22.33;65.94;99484.03;341308;29;1399;-82
2022/05/31 00:27:59;;;;;;;365.77;235.07;;;;;;;22.31;66.47;99480.66;340514;29;1493;-82
2022/05/31 00:28:09;;;;;;;368.65;240.32;;;;;;;22.34;66.30;99486.56;338673;29;1749;-82
2022/05/31 00:28:19;;;;;;;368.15;239.23;;;;;;;22.31;66.37;99486.00;338102;29;1525;-82
2022/05/31 00:28:30;;;;;;;369.77;238.97;;;;;;;22.28;66.04;99481.78;341067;29;1571;-82
2022/05/31 00:28:40;;;;;;;368.80;237.13;;;;;;;22.30;66.36;99485.16;340021;29;1418;-82
2022/05/31 00:28:51;;;;;;;369.03;236.93;;;;;;;22.28;66.48;99478.28;337379;29;1324;-83
2022/05/31 00:29:02;;;;;;;368.13;237.40;;;;;;;22.28;66.54;99486.28;339533;29;1641;-83
2022/05/31 00:29:13;;;;;;;368.15;237.77;;;;;;;22.28;66.79;99486.28;338836;29;1443;-82
2022/05/31 00:29:23;;;;;;;366.20;237.38;;;;;;;22.28;66.86;99486.28;339236;29;1188;-82
2022/05/31 00:29:34;;;;;;;365.37;236.20;;;;;;;22.26;66.56;99482.91;338714;29;1521;-82
2022/05/31 00:29:45;;;;;;;365.88;234.88;;;;;;;22.22;66.98;99482.34;341862;28;1569;-82
2022/05/31 00:29:56;;;;;;;372.02;235.95;;;;;;;22.27;66.48;99489.91;339783;29;1563;-82
2022/05/31 00:30:07;;;;;;;374.48;239.32;;;;;;;22.29;67.03;99487.97;339963;29;1214;-82
2022/05/31 00:30:17;;;;;;;370.38;238.93;;;;;;;22.29;66.59;99483.47;342087;28;1425;-82
2022/05/31 00:30:28;;;;;;;363.10;237.47;;;;;;;22.31;66.78;99488.66;338303;29;1464;-82
2022/05/31 00:30:38;;;;;;;364.13;237.57;;;;;;;22.31;66.76;99483.31;336342;29;1321;-82
2022/05/31 00:30:49;;;;;;;367.13;239.27;;;;;;;22.29;66.44;99480.81;340090;29;1605;-82
2022/05/31 00:30:59;;;;;;;369.52;239.57;;;;;;;22.31;66.70;99481.50;338987;29;1393;-82
2022/05/31 00:31:09;;;;;;;369.70;239.53;;;;;;;22.31;66.93;99478.00;337866;29;1162;-82
2022/05/31 00:31:20;;;;;;;368.10;238.73;;;;;;;22.33;66.40;99481.38;338646;29;1357;-82
2022/05/31 00:31:30;;;;;;;367.37;236.07;;;;;;;22.36;66.94;99483.75;338517;29;1528;-82
2022/05/31 00:31:46;;;;;;;366.13;236.80;;;;;;;22.33;66.45;99481.38;340619;29;1426;-82
2022/05/31 00:31:57;;;;;;;365.20;239.07;;;;;;;22.35;66.59;99490.91;340512;29;1218;-82
2022/05/31 00:32:09;;;;;;;366.30;236.65;;;;;;;22.33;66.65;99484.88;337147;29;1272;-82
2022/05/31 00:32:26;;;;;;;365.85;235.77;;;;;;;22.34;66.97;99483.03;338814;29;1270;-82
2022/05/31 00:32:37;;;;;;;365.42;239.55;;;;;;;22.34;66.58;99485.72;342550;28;831;-82
2022/05/31 00:32:49;;;;;;;365.27;242.60;;;;;;;22.34;66.98;99485.72;339829;29;1596;-82
2022/05/31 00:33:00;;;;;;;367.38;244.68;;;;;;;22.31;66.93;99480.66;338561;29;1275;-82
2022/05/31 00:33:10;;;;;;;369.33;243.00;;;;;;;22.31;66.52;99486.00;342499;28;1524;-82
2022/05/31 00:33:20;;;;;;;369.42;239.27;;;;;;;22.31;67.14;99480.66;338337;29;1263;-82
2022/05/31 00:33:31;;;;;;;370.47;240.37;;;;;;;22.35;66.62;99487.41;339822;29;1488;-82
2022/05/31 00:33:41;;;;;;;369.90;240.57;;;;;;;22.34;66.81;99485.72;338925;29;1415;-82
2022/05/31 00:33:52;;;;;;;369.60;242.30;;;;;;;22.34;66.88;99489.22;338568;29;1311;-82
2022/05/31 00:34:02;;;;;;;367.57;242.00;;;;;;;22.32;66.72;99483.19;337805;29;1343;-82
2022/05/31 00:34:13;;;;;;;364.33;240.07;;;;;;;22.33;66.90;99484.03;336409;29;1313;-82
2022/05/31 00:34:23;;;;;;;364.85;238.98;;;;;;;22.32;67.30;99480.53;341182;29;905;-82
2022/05/31 00:34:35;;;;;;;366.20;237.77;;;;;;;22.29;66.63;99478.13;342036;29;1453;-82
2022/05/31 00:34:46;;;;;;;366.45;237.90;;;;;;;22.29;67.04;99485.28;335980;29;1660;-82
2022/05/31 00:34:59;;;;;;;368.88;239.93;;;;;;;22.28;67.08;99475.59;341663;29;1314;-82
2022/05/31 00:35:18;;;;;;;366.65;240.52;;;;;;;22.29;67.42;99482.63;341160;29;830;-82
2022/05/31 00:35:31;;;;;;;363.52;238.57;;;;;;;22.29;67.45;99487.97;337288;29;1546;-82
2022/05/31 00:35:45;;;;;;;367.98;237.43;;;;;;;22.28;67.48;99484.44;338624;29;1549;-82
2022/05/31 00:35:56;;;;;;;367.75;235.35;;;;;;;22.24;67.78;99483.88;338567;29;1292;-82
2022/05/31 00:36:06;;;;;;;363.40;234.70;;;;;;;22.26;67.67;99482.91;336877;29;1244;-82
2022/05/31 00:36:17;;;;;;;363.03;234.70;;;;;;;22.23;67.77;99484.88;339876;29;1342;-82
2022/05/31 00:36:27;;;;;;;362.63;234.07;;;;;;;22.23;67.81;99484.03;338386;29;1473;-82
2022/05/31 00:36:39;;;;;;;366.90;237.37;;;;;;;22.22;67.60;99483.19;337274;29;1304;-82
2022/05/31 00:36:49;;;;;;;373.25;241.00;;;;;;;22.21;67.85;99476.16;336975;29;1463;-82
2022/05/31 00:37:00;;;;;;;372.17;239.40;;;;;;;22.26;67.42;99481.09;339221;29;1497;-82
2022/05/31 00:37:10;;;;;;;368.20;236.98;;;;;;;22.22;67.54;99485.84;339264;29;1322;-82
2022/05/31 00:37:21;;;;;;;366.20;235.17;;;;;;;22.24;67.87;99486.56;338456;29;1489;-82
2022/05/31 00:37:32;;;;;;;366.80;234.98;;;;;;;22.22;67.81;99482.34;336766;29;1441;-82
2022/05/31 00:37:44;;;;;;;366.83;234.85;;;;;;;22.23;68.12;99479.53;340541;29;830;-82
2022/05/31 00:37:54;;;;;;;368.50;236.82;;;;;;;22.24;68.39;99481.22;341040;29;1522;-82
2022/05/31 00:38:05;;;;;;;371.10;239.10;;;;;;;22.19;68.39;99475.47;338309;29;1320;-82
2022/05/31 00:38:15;;;;;;;370.10;234.75;;;;;;;22.21;68.29;99484.16;341200;29;1587;-82
2022/05/31 00:38:26;;;;;;;369.67;231.07;;;;;;;22.22;68.23;99472.53;340445;29;1329;-82
2022/05/31 00:38:36;;;;;;;366.50;228.73;;;;;;;22.21;68.48;99491.31;336322;29;1276;-82
2022/05/31 00:38:47;;;;;;;367.10;233.60;;;;;;;22.23;68.24;99479.53;339591;29;1418;-82
2022/05/31 00:38:57;;;;;;;365.40;236.67;;;;;;;22.21;68.22;99484.16;335283;29;1510;-82
2022/05/31 00:39:08;;;;;;;368.88;240.90;;;;;;;22.21;68.46;99491.31;339845;29;1339;-82
2022/05/31 00:39:18;;;;;;;369.43;240.30;;;;;;;22.24;68.48;99491.88;339297;29;1509;-82
2022/05/31 00:39:29;;;;;;;369.85;237.80;;;;;;;22.24;68.66;99491.03;339287;29;1267;-82
2022/05/31 00:39:39;;;;;;;366.43;233.43;;;;;;;22.22;68.48;99483.19;338970;29;1021;-82
2022/05/31 00:39:50;;;;;;;364.20;230.05;;;;;;;22.20;68.37;99479.81;341799;29;1211;-82
2022/05/31 00:40:00;;;;;;;365.83;231.37;;;;;;;22.26;68.54;99482.91;338941;29;1923;-82
2022/05/31 00:40:12;;;;;;;366.33;234.60;;;;;;;22.26;68.65;99489.06;338662;29;1539;-82
2022/05/31 00:40:24;;;;;;;367.08;239.32;;;;;;;22.28;68.47;99491.59;339066;29;1417;-82
2022/05/31 00:40:34;;;;;;;367.23;238.02;;;;;;;22.23;68.42;99484.88;340931;29;1364;-82
2022/05/31 00:40:45;;;;;;;367.80;238.82;;;;;;;22.27;68.12;99484.59;341022;29;1527;-82
2022/05/31 00:41:23;;;;;;;369.00;241.60;;;;;;;22.26;68.29;99493.56;339880;29;867;-82
2022/05/31 00:41:26;;;;;;;362.95;232.50;;;;;;;22.24;68.06;99486.56;336755;29;1138;-82
2022/05/31 00:41:36;;;;;;;364.85;230.18;;;;;;;22.23;67.92;99479.53;337086;29;1220;-82
2022/05/31 00:42:04;;;;;;;368.23;233.63;;;;;;;22.29;67.99;99488.81;339793;29;1194;-82
2022/05/31 00:42:17;;;;;;;361.00;237.22;;;;;;;22.27;68.26;99485.44;338767;29;1482;-82
2022/05/31 00:42:27;;;;;;;361.02;237.02;;;;;;;22.29;67.93;99485.28;339310;29;1398;-82
2022/05/31 00:43:20;;;;;;;361.40;234.30;;;;;;;22.30;68.00;99490.50;340361;29;1432;-82
2022/05/31 00:43:30;;;;;;;361.55;233.75;;;;;;;22.26;67.66;99489.06;334636;29;1479;-82
2022/05/31 00:43:40;;;;;;;363.37;234.53;;;;;;;22.26;67.90;99488.25;334324;29;1214;-82
2022/05/31 00:43:53;;;;;;;360.20;227.98;;;;;;;22.23;67.92;99487.53;337185;29;1549;-82
2022/05/31 00:44:08;;;;;;;364.02;226.45;;;;;;;22.26;67.63;99483.75;337795;29;1063;-82
2022/05/31 00:44:26;;;;;;;368.70;229.68;;;;;;;22.26;68.03;99485.56;333251;29;1292;-82
2022/05/31 00:44:36;;;;;;;367.55;236.10;;;;;;;22.27;67.95;99489.91;337041;29;1366;-82
2022/05/31 00:44:47;;;;;;;365.50;235.07;;;;;;;22.28;67.97;99492.44;337804;29;1561;-82
2022/05/31 00:44:57;;;;;;;364.30;230.55;;;;;;;22.28;67.64;99487.13;333567;29;1244;-82
2022/05/31 00:45:08;;;;;;;367.67;233.03;;;;;;;22.29;67.68;99490.63;336189;29;1617;-82
2022/05/31 00:45:20;;;;;;;370.52;237.50;;;;;;;22.29;67.66;99487.97;337328;29;1904;-82
2022/05/31 00:45:52;;;;;;;364.90;235.85;;;;;;;22.28;67.92;99489.78;337088;29;1381;-82
2022/05/31 00:46:03;;;;;;;355.65;226.50;;;;;;;22.25;67.72;99487.41;337078;29;1414;-82
2022/05/31 00:46:13;;;;;;;358.35;230.82;;;;;;;22.27;68.02;99487.25;338096;29;1264;-82
2022/05/31 00:46:24;;;;;;;360.43;235.00;;;;;;;22.28;67.77;99491.59;336133;29;1222;-82
2022/05/31 00:46:53;;;;;;;362.98;237.57;;;;;;;22.25;67.94;99487.41;336744;29;1332;-82
2022/05/31 00:47:07;;;;;;;360.83;231.65;;;;;;;22.24;68.05;99491.88;338433;29;1634;-82
2022/05/31 00:47:28;;;;;;;358.92;232.50;;;;;;;22.24;67.93;99496.38;335918;29;1517;-82
2022/05/31 00:47:38;;;;;;;362.27;231.90;;;;;;;22.25;68.10;99492.72;335210;29;796;-82
2022/05/31 00:47:48;;;;;;;364.95;233.00;;;;;;;22.26;68.19;99493.56;337353;29;1335;-82
2022/05/31 00:47:59;;;;;;;365.87;237.37;;;;;;;22.23;67.91;99487.53;335985;29;1514;-82
2022/05/31 00:48:41;;;;;;;361.52;234.40;;;;;;;22.24;68.20;99491.88;337428;29;1336;-82
2022/05/31 00:48:56;;;;;;;362.73;233.95;;;;;;;22.23;68.04;99489.34;337026;29;1454;-82
2022/05/31 00:49:07;;;;;;;363.48;236.27;;;;;;;22.27;68.02;99489.91;336026;29;1590;-82
2022/05/31 00:49:27;;;;;;;362.90;234.00;;;;;;;22.28;68.18;99487.13;335858;29;1396;-82
2022/05/31 00:49:42;;;;;;;362.52;232.60;;;;;;;22.26;68.39;99488.25;341191;29;1425;-82
2022/05/31 00:49:56;;;;;;;361.88;232.68;;;;;;;22.25;68.34;99498.06;341269;29;1469;-82
2022/05/31 00:50:15;;;;;;;363.60;237.68;;;;;;;22.24;68.20;99485.72;341808;28;1571;-83
2022/05/31 00:50:31;;;;;;;363.60;242.43;;;;;;;22.22;68.38;99488.50;337167;29;1515;-83
2022/05/31 00:50:53;;;;;;;360.80;237.25;;;;;;;22.22;68.37;99491.19;337543;29;855;-83
2022/05/31 00:51:07;;;;;;;362.02;233.20;;;;;;;22.23;68.50;99494.69;341954;28;902;-83
2022/05/31 00:51:18;;;;;;;367.95;239.70;;;;;;;22.24;68.26;99488.38;340154;29;1548;-83
2022/05/31 00:51:38;;;;;;;368.67;239.60;;;;;;;22.23;68.11;99492.88;338772;29;807;-83
2022/05/31 00:51:49;;;;;;;366.48;235.35;;;;;;;22.20;68.36;99489.63;337355;29;1431;-82
2022/05/31 00:52:21;;;;;;;367.17;234.98;;;;;;;22.20;68.54;99482.47;337976;29;1580;-82
2022/05/31 00:52:36;;;;;;;366.13;234.63;;;;;;;22.22;68.93;99491.19;337487;29;1521;-82
2022/05/31 00:52:47;;;;;;;365.23;238.43;;;;;;;22.22;68.81;99483.19;337638;29;1392;-82
2022/05/31 00:53:12;;;;;;;362.27;234.85;;;;;;;22.23;68.55;99492.88;337754;29;1384;-82
2022/05/31 00:53:28;;;;;;;359.23;226.82;;;;;;;22.21;68.89;99486.84;338250;29;1513;-81
2022/05/31 00:53:43;;;;;;;367.63;236.63;;;;;;;22.22;69.13;99491.19;340319;29;1532;-81
2022/05/31 00:53:56;;;;;;;368.25;237.60;;;;;;;22.20;69.10;99492.31;338006;29;1251;-81
2022/05/31 00:54:08;;;;;;;363.77;232.25;;;;;;;22.22;69.16;99493.84;337028;29;1577;-81
2022/05/31 00:54:20;;;;;;;362.13;230.77;;;;;;;22.22;68.98;99493.84;340231;29;1540;-81
2022/05/31 00:54:31;;;;;;;364.60;235.32;;;;;;;22.20;69.12;99494.97;341011;29;1453;-81
2022/05/31 00:54:53;;;;;;;363.02;234.43;;;;;;;22.21;69.51;99491.31;338737;29;1456;-81
2022/05/31 00:55:30;;;;;;;364.08;237.57;;;;;;;22.21;69.60;99493.97;339310;29;1482;-81